Irons, Michigan
Current Conditions -  °F | °C
As of 4:35 PM on Monday 24 Nov 2014 (Local Time) from KMBL Reporting Station
Overcast Overcast  
Wind Chill: 31°   Ceiling: 600
Heat Index: 39°   Visibility: 10mi
Dew Point: 37°   Wind: 14mph
Humidity: 93%   Direction: 310°NW
Pressure: 29.19"   Gusts: 17mph
Location:  44.14°N, 85.92°W
Report Text: KMBL 242135Z AUTO 31012G15KT 10SM OVC006 04/03 A2919 RMK AO1 P0005
Loading
Personal Weather Stations






























Interactive Weather Map New forecast layout! Learn more

10-Day Weather Forecast

Advertisements
Track Severe Weather on mobile